Time;durP1;ratioP1;P1;durP2;ratioP2;P2;SDS_P1;SDS_P2;PMS_P1;PMS_P2;Temp;Humidity;BMP_temperature;BMP_pressure;BME280_temperature;BME280_humidity;BME280_pressure;Samples;Min_cycle;Max_cycle;Signal;HPM_P1;HPM_P2
2021/08/28 00:00:11;;;;;;;1.95;1.20;;;15.70;80.00;;;;;;5030314;28;20025;-75
2021/08/28 00:02:37;;;;;;;1.95;1.10;;;15.70;80.00;;;;;;5030537;28;20045;-75
2021/08/28 00:05:02;;;;;;;3.75;1.42;;;15.70;80.10;;;;;;5031204;28;20025;-75
2021/08/28 00:07:28;;;;;;;3.20;1.33;;;15.60;80.10;;;;;;5030921;28;20037;-75
2021/08/28 00:09:53;;;;;;;1.77;1.30;;;15.60;80.10;;;;;;5062521;28;20128;-75
2021/08/28 00:12:19;;;;;;;2.05;1.30;;;15.70;80.20;;;;;;5029728;28;20040;-75
2021/08/28 00:14:44;;;;;;;2.22;1.20;;;15.70;80.20;;;;;;5030806;28;20091;-75
2021/08/28 00:17:10;;;;;;;1.73;1.10;;;15.70;80.20;;;;;;5030483;28;20096;-76
2021/08/28 00:19:35;;;;;;;1.63;1.13;;;15.80;80.20;;;;;;5031087;28;20721;-76
2021/08/28 00:22:01;;;;;;;3.75;1.33;;;15.80;80.10;;;;;;5030819;28;20091;-76
2021/08/28 00:24:26;;;;;;;3.78;1.52;;;15.90;80.10;;;;;;5030673;28;20033;-75
2021/08/28 00:26:53;;;;;;;3.55;1.35;;;15.90;80.30;;;;;;5030684;28;20387;-75
2021/08/28 00:29:19;;;;;;;4.38;1.48;;;15.90;80.30;;;;;;5030456;28;20028;-76
2021/08/28 00:31:44;;;;;;;3.78;1.50;;;15.90;80.30;;;;;;5030973;28;20021;-75
2021/08/28 00:34:10;;;;;;;2.35;1.10;;;15.90;80.30;;;;;;5029868;28;20049;-75
2021/08/28 00:36:36;;;;;;;3.55;1.30;;;15.90;80.40;;;;;;5023561;28;20478;-75
2021/08/28 00:39:02;;;;;;;3.00;1.50;;;15.90;80.30;;;;;;5030752;28;20026;-75
2021/08/28 00:41:27;;;;;;;2.53;1.42;;;15.90;80.30;;;;;;5030307;28;20029;-76
2021/08/28 00:43:53;;;;;;;5.10;1.55;;;15.90;80.40;;;;;;5030540;28;20442;-75
2021/08/28 00:46:19;;;;;;;2.58;1.40;;;15.90;80.60;;;;;;5029979;28;20021;-76
2021/08/28 00:48:45;;;;;;;4.13;1.55;;;15.90;80.60;;;;;;5030589;28;20034;-76
2021/08/28 00:51:11;;;;;;;2.53;1.40;;;16.00;80.70;;;;;;5031177;28;20491;-76
2021/08/28 00:53:37;;;;;;;3.40;1.63;;;16.00;80.80;;;;;;5030756;28;20032;-76
2021/08/28 00:56:02;;;;;;;3.60;1.50;;;15.90;80.80;;;;;;5029945;28;20033;-76
2021/08/28 00:58:28;;;;;;;3.47;1.38;;;15.90;80.90;;;;;;5030538;28;20040;-76
2021/08/28 01:00:56;;;;;;;2.28;1.30;;;15.90;80.90;;;;;;5030506;28;20516;-76
2021/08/28 01:03:27;;;;;;;3.53;1.83;;;16.00;81.00;;;;;;5030173;28;20110;-74
2021/08/28 01:06:12;;;;;;;3.10;1.50;;;15.90;81.00;;;;;;5018913;28;20025;-77
2021/08/28 01:08:50;;;;;;;3.65;1.70;;;16.00;81.20;;;;;;5030579;28;20022;-76
2021/08/28 01:11:30;;;;;;;2.38;1.48;;;15.90;81.30;;;;;;5030487;28;20025;-76
2021/08/28 01:14:19;;;;;;;3.95;1.60;;;15.90;81.30;;;;;;5030222;28;20072;-74
2021/08/28 01:16:49;;;;;;;3.17;1.52;;;15.90;81.40;;;;;;5011252;28;20022;-78
2021/08/28 01:19:36;;;;;;;2.17;1.30;;;15.90;81.30;;;;;;5030567;28;20040;-76
2021/08/28 01:22:11;;;;;;;2.67;1.40;;;15.90;81.30;;;;;;5030039;28;20044;-77
2021/08/28 01:24:40;;;;;;;2.55;1.27;;;16.00;81.40;;;;;;5030278;28;20391;-76
2021/08/28 01:27:18;;;;;;;3.38;1.40;;;16.00;81.30;;;;;;5030092;28;20022;-76
2021/08/28 01:29:44;;;;;;;3.00;1.70;;;16.00;81.40;;;;;;5030013;28;20124;-76
2021/08/28 01:32:10;;;;;;;4.35;1.67;;;15.90;81.50;;;;;;5029461;28;20029;-76
2021/08/28 01:34:38;;;;;;;3.80;1.65;;;16.00;81.60;;;;;;5030201;28;20025;-76
2021/08/28 01:37:04;;;;;;;2.97;1.50;;;16.00;81.50;;;;;;5030018;28;20029;-76
2021/08/28 01:39:32;;;;;;;3.65;1.65;;;16.00;81.50;;;;;;5029549;28;20033;-76
2021/08/28 01:42:02;;;;;;;3.22;1.70;;;16.10;81.60;;;;;;5029862;28;20048;-75
2021/08/28 01:44:28;;;;;;;3.03;1.60;;;16.10;81.50;;;;;;5030221;28;20495;-76
2021/08/28 01:46:54;;;;;;;2.85;1.58;;;16.00;81.60;;;;;;5029451;28;20021;-76
2021/08/28 01:49:21;;;;;;;3.38;1.50;;;16.10;81.60;;;;;;5030311;28;20032;-76
2021/08/28 01:51:49;;;;;;;3.13;1.40;;;16.10;81.70;;;;;;5030453;28;20021;-76
2021/08/28 01:54:14;;;;;;;3.08;1.60;;;16.00;81.60;;;;;;5030108;28;20061;-76
2021/08/28 01:56:40;;;;;;;2.10;1.23;;;16.10;81.60;;;;;;5031416;28;20056;-76
2021/08/28 01:59:06;;;;;;;4.55;1.85;;;16.10;81.60;;;;;;5033689;28;20477;-76
2021/08/28 02:01:33;;;;;;;3.33;1.70;;;16.10;81.60;;;;;;5033553;28;20511;-76
2021/08/28 02:03:58;;;;;;;3.20;1.65;;;16.10;81.50;;;;;;5033214;28;20362;-76
2021/08/28 02:06:36;;;;;;;2.55;1.38;;;16.10;81.70;;;;;;5033473;28;20056;-76
2021/08/28 02:09:15;;;;;;;3.63;1.70;;;16.00;81.70;;;;;;5030334;28;20109;-76
2021/08/28 02:12:07;;;;;;;2.90;1.60;;;16.10;81.90;;;;;;5033429;28;20068;-76
2021/08/28 02:14:43;;;;;;;3.72;1.50;;;16.10;82.00;;;;;;5033028;28;20103;-76
2021/08/28 02:17:10;;;;;;;3.78;1.52;;;16.10;82.00;;;;;;5033419;28;20045;-76
2021/08/28 02:19:42;;;;;;;4.10;1.60;;;16.10;82.00;;;;;;5033655;28;20119;-76
2021/08/28 02:22:20;;;;;;;5.10;1.70;;;16.10;82.00;;;;;;5033550;28;20149;-76
2021/08/28 02:24:49;;;;;;;5.20;1.85;;;16.10;82.00;;;;;;5033260;28;20025;-75
2021/08/28 02:27:31;;;;;;;2.00;1.15;;;16.10;82.20;;;;;;5031071;28;20022;-75
2021/08/28 02:30:09;;;;;;;2.65;1.50;;;16.10;82.20;;;;;;5033418;28;20500;-75
2021/08/28 02:32:36;;;;;;;6.15;1.90;;;16.10;82.20;;;;;;5032905;28;20033;-76
2021/08/28 02:35:02;;;;;;;3.65;1.60;;;16.10;82.20;;;;;;5032257;28;20014;-76
2021/08/28 02:37:33;;;;;;;2.95;1.42;;;16.10;82.30;;;;;;5032175;28;20029;-76
2021/08/28 02:40:01;;;;;;;3.55;1.60;;;16.10;82.40;;;;;;5033258;28;20028;-77
2021/08/28 02:42:27;;;;;;;4.82;2.00;;;16.10;82.30;;;;;;5032103;28;20041;-75
2021/08/28 02:44:54;;;;;;;4.80;1.88;;;16.20;82.50;;;;;;5032776;28;20036;-76
2021/08/28 02:47:22;;;;;;;2.90;1.85;;;16.10;82.50;;;;;;5031991;28;20052;-76
2021/08/28 02:49:50;;;;;;;2.63;1.63;;;16.10;82.60;;;;;;5033040;28;20025;-76
2021/08/28 02:52:19;;;;;;;6.40;1.95;;;16.20;82.70;;;;;;5031371;28;20547;-76
2021/08/28 02:54:47;;;;;;;5.03;1.80;;;16.20;82.70;;;;;;5030382;28;20503;-76
2021/08/28 02:57:14;;;;;;;6.18;2.03;;;16.20;82.80;;;;;;5032442;28;20060;-76
2021/08/28 02:59:40;;;;;;;4.57;1.90;;;16.20;82.80;;;;;;5032637;28;20075;-76
2021/08/28 03:02:06;;;;;;;4.03;1.80;;;16.20;82.90;;;;;;5032270;28;20068;-76
2021/08/28 03:04:34;;;;;;;4.60;1.67;;;16.20;83.00;;;;;;5032315;28;20472;-77
2021/08/28 03:07:00;;;;;;;2.35;1.50;;;16.20;83.10;;;;;;5032556;28;20066;-77
2021/08/28 03:09:26;;;;;;;3.65;1.60;;;16.20;83.10;;;;;;5032022;28;20060;-76
2021/08/28 03:11:51;;;;;;;3.78;1.65;;;16.20;83.10;;;;;;5032197;28;20429;-77
2021/08/28 03:14:18;;;;;;;4.50;1.67;;;16.20;83.20;;;;;;5032116;28;20087;-77
2021/08/28 03:16:47;;;;;;;3.97;1.63;;;16.30;83.30;;;;;;5032195;28;20026;-77
2021/08/28 03:19:14;;;;;;;5.10;1.73;;;16.30;83.30;;;;;;5032471;28;20032;-77
2021/08/28 03:21:40;;;;;;;1.77;1.40;;;16.30;83.40;;;;;;5032147;28;20025;-77
2021/08/28 03:24:07;;;;;;;3.38;1.75;;;16.20;83.30;;;;;;5031680;28;20033;-77
2021/08/28 03:26:34;;;;;;;2.22;1.55;;;16.30;83.40;;;;;;5031466;28;20071;-77
2021/08/28 03:29:00;;;;;;;1.88;1.30;;;16.20;83.30;;;;;;5032748;28;20030;-77
2021/08/28 03:31:27;;;;;;;1.48;1.23;;;16.30;83.40;;;;;;5032167;28;20014;-76
2021/08/28 03:33:58;;;;;;;3.50;1.88;;;16.30;83.30;;;;;;5031271;28;20041;-77
2021/08/28 03:36:24;;;;;;;2.90;1.67;;;16.30;83.30;;;;;;5031916;28;20160;-76
2021/08/28 03:38:50;;;;;;;2.53;1.42;;;16.30;83.20;;;;;;5031165;28;20536;-77
2021/08/28 03:41:16;;;;;;;2.38;1.30;;;16.30;83.20;;;;;;5032300;28;20029;-76
2021/08/28 03:43:43;;;;;;;2.03;1.40;;;16.40;83.30;;;;;;5031191;28;20484;-77
2021/08/28 03:46:09;;;;;;;2.92;1.20;;;16.40;83.30;;;;;;5030911;28;20033;-78
2021/08/28 03:48:37;;;;;;;3.03;1.52;;;16.40;83.40;;;;;;5031870;28;20104;-77
2021/08/28 03:51:03;;;;;;;4.40;1.60;;;16.40;83.40;;;;;;5031764;28;20013;-77
2021/08/28 03:53:28;;;;;;;2.90;1.60;;;16.40;83.50;;;;;;5032016;28;20022;-77
2021/08/28 03:55:56;;;;;;;2.63;1.50;;;16.40;83.40;;;;;;5031112;28;20060;-77
2021/08/28 03:58:22;;;;;;;2.47;1.60;;;16.40;83.50;;;;;;5031906;28;20376;-77
2021/08/28 04:00:48;;;;;;;3.38;1.80;;;16.40;83.40;;;;;;5031639;28;20026;-77
2021/08/28 04:03:13;;;;;;;2.83;1.35;;;16.40;83.50;;;;;;5030664;28;20071;-77
2021/08/28 04:05:39;;;;;;;3.10;1.73;;;16.40;83.50;;;;;;5031222;28;20076;-76
2021/08/28 04:08:05;;;;;;;1.90;1.30;;;16.40;83.50;;;;;;5031137;28;20369;-77
2021/08/28 04:10:30;;;;;;;2.22;1.52;;;16.40;83.50;;;;;;5031766;28;20418;-77
2021/08/28 04:12:56;;;;;;;3.22;1.58;;;16.40;83.50;;;;;;5031330;28;20044;-76
2021/08/28 04:15:22;;;;;;;3.15;1.42;;;16.40;83.70;;;;;;5031319;28;20041;-77
2021/08/28 04:17:47;;;;;;;2.67;1.25;;;16.40;83.80;;;;;;5030928;28;20037;-77
2021/08/28 04:20:13;;;;;;;3.30;1.42;;;16.40;83.80;;;;;;5030338;28;20082;-77
2021/08/28 04:22:38;;;;;;;2.88;1.60;;;16.40;83.70;;;;;;5031351;28;20025;-77
2021/08/28 04:25:04;;;;;;;2.63;1.77;;;16.40;83.90;;;;;;5030922;28;20029;-77
2021/08/28 04:27:30;;;;;;;3.28;1.70;;;16.40;83.90;;;;;;5030724;28;20026;-77
2021/08/28 04:29:55;;;;;;;3.47;1.75;;;16.40;84.00;;;;;;5031221;28;20036;-77
2021/08/28 04:32:21;;;;;;;2.55;1.60;;;16.40;84.00;;;;;;5031477;28;20070;-77
2021/08/28 04:34:46;;;;;;;5.38;1.85;;;16.40;84.00;;;;;;5030466;28;20036;-77
2021/08/28 04:37:12;;;;;;;3.75;1.90;;;16.40;84.10;;;;;;5030430;28;20029;-77
2021/08/28 04:39:39;;;;;;;3.80;1.90;;;16.40;84.10;;;;;;5031144;28;20067;-77
2021/08/28 04:42:04;;;;;;;1.85;1.50;;;16.40;84.10;;;;;;5030631;28;20028;-77
2021/08/28 04:44:30;;;;;;;2.65;1.70;;;16.40;84.10;;;;;;5030798;28;20025;-77
2021/08/28 04:46:55;;;;;;;2.65;1.40;;;16.40;84.10;;;;;;5030638;28;20029;-77
2021/08/28 04:49:21;;;;;;;2.88;1.77;;;16.40;84.20;;;;;;5030175;28;20071;-77
2021/08/28 04:51:47;;;;;;;4.22;1.88;;;16.30;84.20;;;;;;5031082;28;20053;-77
2021/08/28 04:54:12;;;;;;;3.03;1.92;;;16.30;84.30;;;;;;5030225;28;20091;-77
2021/08/28 04:56:38;;;;;;;2.92;1.80;;;16.30;84.30;;;;;;5030533;28;20034;-76
2021/08/28 04:59:03;;;;;;;2.40;1.55;;;16.30;84.40;;;;;;5030785;28;20049;-77
2021/08/28 05:01:29;;;;;;;2.63;1.40;;;16.30;84.30;;;;;;5030363;28;20025;-78
2021/08/28 05:03:54;;;;;;;2.13;1.75;;;16.30;84.30;;;;;;5030343;28;20052;-77
2021/08/28 05:06:20;;;;;;;4.82;1.88;;;16.40;84.30;;;;;;5030150;28;20018;-77
2021/08/28 05:08:45;;;;;;;4.72;1.70;;;16.40;84.20;;;;;;5030452;28;20384;-76
2021/08/28 05:11:12;;;;;;;4.00;1.80;;;16.40;84.10;;;;;;5030634;28;20029;-77
2021/08/28 05:13:38;;;;;;;3.80;1.92;;;16.40;84.10;;;;;;5029857;28;20032;-76
2021/08/28 05:16:05;;;;;;;2.25;1.92;;;16.40;84.20;;;;;;5030364;28;20040;-76
2021/08/28 05:18:30;;;;;;;2.08;1.50;;;16.40;84.40;;;;;;5030507;28;20032;-76
2021/08/28 05:20:56;;;;;;;2.45;1.83;;;16.40;84.40;;;;;;5030111;28;20021;-75
2021/08/28 05:23:21;;;;;;;3.30;1.75;;;16.40;84.30;;;;;;5030414;28;20041;-76
2021/08/28 05:25:47;;;;;;;2.53;1.70;;;16.40;84.30;;;;;;5029992;28;20022;-77
2021/08/28 05:28:13;;;;;;;3.45;1.80;;;16.50;84.30;;;;;;5029524;28;20033;-76
2021/08/28 05:30:38;;;;;;;2.47;1.80;;;16.50;84.20;;;;;;5030233;28;20018;-75
2021/08/28 05:33:04;;;;;;;4.35;2.05;;;16.50;84.30;;;;;;5034245;28;20400;-76
2021/08/28 05:35:29;;;;;;;1.80;1.42;;;16.50;84.30;;;;;;5033974;28;20375;-76
2021/08/28 05:37:55;;;;;;;4.35;1.80;;;16.50;84.30;;;;;;5033481;28;20025;-76
2021/08/28 05:40:22;;;;;;;5.05;1.80;;;16.50;84.20;;;;;;5033890;28;20052;-75
2021/08/28 05:42:47;;;;;;;3.20;1.85;;;16.50;84.20;;;;;;5033505;28;20389;-75
2021/08/28 05:45:13;;;;;;;3.08;1.73;;;16.50;84.20;;;;;;5041385;28;20032;-75
2021/08/28 05:47:38;;;;;;;3.60;1.77;;;16.50;84.20;;;;;;5033886;28;20030;-75
2021/08/28 05:50:05;;;;;;;3.30;1.70;;;16.60;84.30;;;;;;5034686;28;20417;-75
2021/08/28 05:52:31;;;;;;;3.60;2.03;;;16.60;84.30;;;;;;5034175;28;20022;-76
2021/08/28 05:54:56;;;;;;;3.67;2.10;;;16.60;84.30;;;;;;5034484;28;20044;-76
2021/08/28 05:57:22;;;;;;;4.70;2.10;;;16.60;84.30;;;;;;5033783;28;20030;-76
2021/08/28 05:59:47;;;;;;;4.63;2.80;;;16.60;84.30;;;;;;5034604;28;20033;-75
2021/08/28 06:02:13;;;;;;;4.75;2.20;;;16.60;84.60;;;;;;5033919;28;20033;-76
2021/08/28 06:04:39;;;;;;;3.65;2.17;;;16.70;84.70;;;;;;5034345;28;20021;-75
2021/08/28 06:07:05;;;;;;;2.88;1.88;;;16.80;84.60;;;;;;5032260;28;20075;-76
2021/08/28 06:09:30;;;;;;;3.55;2.20;;;16.80;84.50;;;;;;5033289;28;20037;-75
2021/08/28 06:11:56;;;;;;;3.33;2.10;;;16.90;84.40;;;;;;5034317;28;20018;-75
2021/08/28 06:14:22;;;;;;;4.70;2.40;;;17.20;84.70;;;;;;5034037;28;20022;-75
2021/08/28 06:16:47;;;;;;;4.63;2.30;;;18.30;83.20;;;;;;5038455;28;20025;-76
2021/08/28 06:19:13;;;;;;;4.05;2.50;;;18.70;80.30;;;;;;5053683;28;20033;-76
2021/08/28 06:21:39;;;;;;;6.68;2.58;;;18.40;79.90;;;;;;5046549;28;20041;-75
2021/08/28 06:24:05;;;;;;;6.30;2.67;;;18.00;80.60;;;;;;5034391;28;20075;-76
2021/08/28 06:26:30;;;;;;;4.72;2.40;;;17.70;81.40;;;;;;5038561;28;20028;-78
2021/08/28 06:28:56;;;;;;;2.60;2.08;;;17.50;82.10;;;;;;5036118;28;20025;-76
2021/08/28 06:31:21;;;;;;;5.40;2.58;;;17.40;82.70;;;;;;5033095;28;20499;-75
2021/08/28 06:33:47;;;;;;;2.17;1.80;;;17.30;83.40;;;;;;5033444;28;20038;-77
2021/08/28 06:36:13;;;;;;;2.58;2.03;;;17.20;83.60;;;;;;5033233;28;20478;-75
2021/08/28 06:38:38;;;;;;;2.92;2.17;;;17.10;84.00;;;;;;5033923;28;20025;-76
2021/08/28 06:41:04;;;;;;;2.35;2.00;;;17.10;84.50;;;;;;5032827;28;20033;-77
2021/08/28 06:43:30;;;;;;;2.38;1.80;;;17.40;84.00;;;;;;5034169;28;20043;-77
2021/08/28 06:45:56;;;;;;;3.33;1.80;;;17.80;83.20;;;;;;5033664;28;20040;-77
2021/08/28 06:48:21;;;;;;;3.13;2.00;;;17.80;82.50;;;;;;5032086;28;20025;-77
2021/08/28 06:50:48;;;;;;;3.35;2.33;;;17.90;82.40;;;;;;5030960;28;20018;-77
2021/08/28 06:53:14;;;;;;;3.30;2.10;;;17.80;82.50;;;;;;5027663;28;20018;-75
2021/08/28 06:55:40;;;;;;;2.15;1.73;;;17.80;82.70;;;;;;5035138;28;20373;-77
2021/08/28 06:58:05;;;;;;;2.90;1.95;;;17.70;82.90;;;;;;5032677;28;20067;-77
2021/08/28 07:00:31;;;;;;;4.13;2.38;;;17.70;83.10;;;;;;5034048;28;20029;-77
2021/08/28 07:02:56;;;;;;;5.20;2.40;;;17.60;83.30;;;;;;5031044;28;20041;-77
2021/08/28 07:05:22;;;;;;;3.25;2.20;;;17.60;83.50;;;;;;5030191;28;20040;-76
2021/08/28 07:07:49;;;;;;;3.40;2.05;;;17.70;83.50;;;;;;5028204;28;20029;-76
2021/08/28 07:10:15;;;;;;;3.80;2.30;;;17.90;83.40;;;;;;5029565;28;20026;-76
2021/08/28 07:12:41;;;;;;;4.55;2.42;;;17.90;83.00;;;;;;5027420;28;20076;-76
2021/08/28 07:15:07;;;;;;;3.90;2.60;;;17.90;83.10;;;;;;5028986;28;20045;-75
2021/08/28 07:17:33;;;;;;;3.92;2.40;;;17.80;83.30;;;;;;5027284;28;20025;-76
2021/08/28 07:19:58;;;;;;;3.70;2.22;;;17.80;83.50;;;;;;5030960;28;20040;-75
2021/08/28 07:22:24;;;;;;;5.28;2.70;;;17.80;83.50;;;;;;5027949;28;20469;-75
2021/08/28 07:24:49;;;;;;;4.65;2.78;;;17.80;83.40;;;;;;5029051;28;20480;-75
2021/08/28 07:27:16;;;;;;;4.78;2.47;;;17.80;83.40;;;;;;5027851;28;20029;-76
2021/08/28 07:29:42;;;;;;;4.38;2.40;;;17.80;83.50;;;;;;5024541;28;20021;-77
2021/08/28 07:32:09;;;;;;;6.40;3.30;;;17.80;83.50;;;;;;5028480;28;20048;-77
2021/08/28 07:34:36;;;;;;;5.25;2.78;;;17.80;83.60;;;;;;5027305;28;20100;-76
2021/08/28 07:37:06;;;;;;;4.63;2.67;;;17.80;83.70;;;;;;5024836;28;20079;-79
2021/08/28 07:39:32;;;;;;;6.43;2.90;;;17.80;83.70;;;;;;5030409;28;20021;-78
2021/08/28 07:41:58;;;;;;;5.78;3.38;;;17.80;83.80;;;;;;5027291;28;20022;-78
2021/08/28 07:44:23;;;;;;;5.60;2.50;;;17.70;83.90;;;;;;5029749;28;20044;-78
2021/08/28 07:46:49;;;;;;;5.82;2.95;;;17.70;83.90;;;;;;5030714;28;20021;-79
2021/08/28 07:49:15;;;;;;;6.43;2.80;;;17.80;83.80;;;;;;5028393;28;20029;-79
2021/08/28 07:51:40;;;;;;;7.32;3.13;;;17.80;83.70;;;;;;5028146;28;20419;-78
2021/08/28 07:54:06;;;;;;;4.93;2.97;;;17.90;83.60;;;;;;5026878;28;20017;-78
2021/08/28 07:56:32;;;;;;;5.57;3.17;;;17.90;83.50;;;;;;5028725;28;20029;-78
2021/08/28 07:58:57;;;;;;;5.68;2.88;;;18.00;83.40;;;;;;5025225;28;20103;-77
2021/08/28 08:01:23;;;;;;;4.53;2.70;;;18.00;83.30;;;;;;5027623;28;20029;-78
2021/08/28 08:03:48;;;;;;;4.03;2.78;;;18.00;83.20;;;;;;5033643;28;20053;-78
2021/08/28 08:06:14;;;;;;;6.45;2.80;;;18.00;83.20;;;;;;5036599;28;20025;-78
2021/08/28 08:08:39;;;;;;;4.35;3.10;;;18.10;83.20;;;;;;5032675;28;20483;-78
2021/08/28 08:11:05;;;;;;;5.07;3.15;;;18.10;83.10;;;;;;5036709;28;20030;-78
2021/08/28 08:13:31;;;;;;;4.80;2.97;;;18.10;82.90;;;;;;5029538;28;20029;-78
2021/08/28 08:15:56;;;;;;;3.95;2.75;;;18.20;83.00;;;;;;5028507;28;20511;-77
2021/08/28 08:18:22;;;;;;;5.65;2.70;;;18.20;82.90;;;;;;5029789;28;20112;-78
2021/08/28 08:20:47;;;;;;;4.53;2.75;;;18.20;82.70;;;;;;5055453;28;20037;-78
2021/08/28 08:23:13;;;;;;;5.57;3.10;;;18.30;82.80;;;;;;5030411;28;20029;-78
2021/08/28 08:25:38;;;;;;;4.47;2.63;;;18.30;82.70;;;;;;5029935;28;20022;-77
2021/08/28 08:28:04;;;;;;;3.97;2.67;;;18.50;82.70;;;;;;5031669;28;20036;-79
2021/08/28 08:30:30;;;;;;;6.28;3.13;;;18.60;82.30;;;;;;5035233;28;20021;-81
2021/08/28 08:32:57;;;;;;;4.20;3.00;;;18.60;81.90;;;;;;5031356;28;20423;-80
2021/08/28 08:35:22;;;;;;;4.85;3.05;;;18.60;81.70;;;;;;5033500;28;20102;-78
2021/08/28 08:37:48;;;;;;;5.68;3.90;;;18.60;81.70;;;;;;5036964;28;20041;-76
2021/08/28 08:40:14;;;;;;;6.75;3.13;;;18.70;81.20;;;;;;5032023;28;20028;-78
2021/08/28 08:42:40;;;;;;;5.97;3.60;;;18.70;80.90;;;;;;5032459;28;20080;-77
2021/08/28 08:45:07;;;;;;;5.35;3.33;;;18.90;80.60;;;;;;5031860;28;20029;-78
2021/08/28 08:47:35;;;;;;;6.85;4.00;;;19.40;80.10;;;;;;5031889;28;20018;-78
2021/08/28 08:50:01;;;;;;;6.88;3.67;;;20.00;77.90;;;;;;5033158;28;20040;-77
2021/08/28 08:52:29;;;;;;;6.45;3.70;;;19.80;77.40;;;;;;5032049;28;20033;-78
2021/08/28 08:54:56;;;;;;;5.60;3.45;;;19.90;76.60;;;;;;5032205;28;20025;-78
2021/08/28 08:57:22;;;;;;;6.22;3.90;;;19.60;76.80;;;;;;5026309;28;20037;-77
2021/08/28 08:59:48;;;;;;;4.68;3.03;;;19.40;77.30;;;;;;5035606;28;20037;-76
2021/08/28 09:02:13;;;;;;;5.32;2.80;;;19.50;77.70;;;;;;5038694;28;20021;-77
2021/08/28 09:04:39;;;;;;;5.47;3.00;;;19.50;77.70;;;;;;5040956;28;20040;-80
2021/08/28 09:07:05;;;;;;;7.80;4.00;;;19.50;77.40;;;;;;5032536;28;20028;-77
2021/08/28 09:09:31;;;;;;;5.50;3.22;;;19.40;77.20;;;;;;5029655;28;20124;-77
2021/08/28 09:11:59;;;;;;;5.63;2.90;;;19.50;77.60;;;;;;5035027;28;20459;-76
2021/08/28 09:14:25;;;;;;;4.78;2.95;;;19.70;77.00;;;;;;5030457;28;20025;-76
2021/08/28 09:16:51;;;;;;;5.65;2.78;;;19.80;76.20;;;;;;5032764;28;20079;-77
2021/08/28 09:19:18;;;;;;;3.90;2.80;;;19.80;75.80;;;;;;5028601;28;20014;-77
2021/08/28 09:21:44;;;;;;;5.25;2.72;;;19.80;75.60;;;;;;5031904;28;20030;-78
2021/08/28 09:24:13;;;;;;;4.63;2.83;;;19.80;75.40;;;;;;5032523;28;20080;-77
2021/08/28 09:26:41;;;;;;;7.43;2.65;;;20.00;75.40;;;;;;5029433;28;20033;-77
2021/08/28 09:29:10;;;;;;;7.15;3.25;;;20.10;75.10;;;;;;5026749;28;20025;-77
2021/08/28 09:31:38;;;;;;;4.78;3.20;;;20.20;74.60;;;;;;5031398;28;20036;-76
2021/08/28 09:34:16;;;;;;;4.75;2.75;;;20.30;74.60;;;;;;5027643;28;20111;-77
2021/08/28 09:36:42;;;;;;;4.63;3.05;;;20.30;74.40;;;;;;5031050;28;20037;-77
2021/08/28 09:39:08;;;;;;;5.95;3.08;;;20.20;74.00;;;;;;5043943;28;20033;-78
2021/08/28 09:41:34;;;;;;;4.90;2.35;;;20.20;74.20;;;;;;5034163;28;20025;-80
2021/08/28 09:44:04;;;;;;;4.55;2.63;;;20.20;74.40;;;;;;5046454;28;20112;-76
2021/08/28 09:46:30;;;;;;;5.55;3.13;;;20.30;74.30;;;;;;5036207;28;20025;-77
2021/08/28 09:49:00;;;;;;;4.78;2.67;;;20.40;73.30;;;;;;5030455;28;20025;-77
2021/08/28 09:51:25;;;;;;;2.42;2.10;;;20.40;72.90;;;;;;5026002;28;20029;-77
2021/08/28 09:53:59;;;;;;;5.40;2.85;;;20.50;73.00;;;;;;5029657;28;20025;-77
2021/08/28 09:56:27;;;;;;;4.78;3.20;;;20.50;72.30;;;;;;5029382;28;20025;-79
2021/08/28 09:58:53;;;;;;;5.10;3.00;;;20.50;71.30;;;;;;5030970;28;20487;-78
2021/08/28 10:01:21;;;;;;;5.15;2.95;;;20.40;71.10;;;;;;5030214;28;20060;-79
2021/08/28 10:04:00;;;;;;;3.00;2.40;;;20.40;70.20;;;;;;5029948;28;20044;-80
2021/08/28 10:06:26;;;;;;;5.65;2.72;;;20.40;70.10;;;;;;5026203;28;20021;-79
2021/08/28 10:08:52;;;;;;;4.18;2.40;;;20.40;69.00;;;;;;5031568;28;20474;-81
2021/08/28 10:11:18;;;;;;;3.55;2.45;;;20.40;69.50;;;;;;5031999;28;20468;-78
2021/08/28 10:13:46;;;;;;;3.88;2.30;;;20.50;69.10;;;;;;5041066;28;20021;-79
2021/08/28 10:16:13;;;;;;;4.50;3.08;;;20.60;68.80;;;;;;5047521;28;20025;-79
2021/08/28 10:18:39;;;;;;;3.35;2.20;;;20.60;68.00;;;;;;5033930;28;20022;-76
2021/08/28 10:21:09;;;;;;;3.28;2.20;;;20.70;68.20;;;;;;5040509;28;20037;-78
2021/08/28 10:23:36;;;;;;;2.90;2.00;;;20.70;67.70;;;;;;5034740;28;20119;-78
2021/08/28 10:26:03;;;;;;;3.35;2.40;;;20.80;67.30;;;;;;5034652;28;20049;-77
2021/08/28 10:28:31;;;;;;;3.65;2.30;;;20.80;67.00;;;;;;5029460;28;20025;-77
2021/08/28 10:30:57;;;;;;;5.30;2.05;;;20.80;66.20;;;;;;5037447;28;20846;-79
2021/08/28 10:33:23;;;;;;;2.92;2.20;;;20.80;66.00;;;;;;5030847;28;20108;-77
2021/08/28 10:35:48;;;;;;;2.92;1.95;;;20.80;65.40;;;;;;5034646;28;20033;-77
2021/08/28 10:38:15;;;;;;;2.65;2.15;;;20.80;64.70;;;;;;5039577;28;20364;-78
2021/08/28 10:40:42;;;;;;;3.83;2.20;;;20.90;64.70;;;;;;5033804;28;20071;-77
2021/08/28 10:43:09;;;;;;;2.30;1.77;;;20.90;64.70;;;;;;5034355;28;20029;-77
2021/08/28 10:45:37;;;;;;;4.13;2.47;;;20.90;64.80;;;;;;5036874;28;20104;-77
2021/08/28 10:48:05;;;;;;;3.47;1.70;;;21.00;64.60;;;;;;5033052;28;20104;-77
2021/08/28 10:50:34;;;;;;;4.72;2.47;;;21.00;65.00;;;;;;5031345;28;20446;-76
2021/08/28 10:53:01;;;;;;;4.65;2.33;;;20.90;63.80;;;;;;5030927;28;20033;-76
2021/08/28 10:55:44;;;;;;;2.92;2.22;;;20.70;63.10;;;;;;5033029;28;20084;-75
2021/08/28 10:58:22;;;;;;;2.95;2.22;;;20.70;63.50;;;;;;5027044;28;20021;-75
2021/08/28 11:00:50;;;;;;;3.90;2.40;;;20.70;63.40;;;;;;5034370;28;20029;-76
2021/08/28 11:03:32;;;;;;;2.75;1.90;;;20.90;63.30;;;;;;5032703;28;20034;-77
2021/08/28 11:06:16;;;;;;;3.80;2.10;;;21.10;63.50;;;;;;5033378;28;20013;-78
2021/08/28 11:08:49;;;;;;;3.92;2.00;;;21.20;63.60;;;;;;5033759;28;20120;-78
2021/08/28 11:11:40;;;;;;;4.47;2.10;;;21.30;63.40;;;;;;5031334;28;20025;-77
2021/08/28 11:14:10;;;;;;;3.50;2.30;;;21.40;63.20;;;;;;5032038;28;20108;-78
2021/08/28 11:16:42;;;;;;;4.03;2.08;;;21.40;62.40;;;;;;5067957;28;20022;-78
2021/08/28 11:19:12;;;;;;;2.28;1.80;;;21.20;62.40;;;;;;5031956;28;20025;-79
2021/08/28 11:21:41;;;;;;;3.92;1.73;;;21.30;62.90;;;;;;5033892;28;20358;-78
2021/08/28 11:24:17;;;;;;;3.63;2.50;;;21.60;63.00;;;;;;5035167;28;20034;-77
2021/08/28 11:26:48;;;;;;;3.35;2.00;;;21.50;61.60;;;;;;5040035;28;20021;-76
2021/08/28 11:29:19;;;;;;;3.53;1.95;;;21.50;61.80;;;;;;5032859;28;20030;-77
2021/08/28 11:32:03;;;;;;;2.85;1.80;;;21.60;62.00;;;;;;5032019;28;20021;-77
2021/08/28 11:34:29;;;;;;;3.15;1.98;;;21.70;62.00;;;;;;5032093;28;20052;-76
2021/08/28 11:37:23;;;;;;;3.22;1.90;;;21.70;61.80;;;;;;5028568;28;20400;-76
2021/08/28 11:39:49;;;;;;;4.45;2.38;;;21.70;61.80;;;;;;5031859;28;20045;-78
2021/08/28 11:42:15;;;;;;;3.42;2.10;;;21.80;61.50;;;;;;5032460;28;20059;-77
2021/08/28 11:44:42;;;;;;;4.68;2.25;;;21.90;61.60;;;;;;5032085;28;20101;-77
2021/08/28 11:47:08;;;;;;;2.88;2.00;;;21.90;61.50;;;;;;5033052;28;20020;-77
2021/08/28 11:49:37;;;;;;;3.20;1.55;;;22.00;61.80;;;;;;5032244;28;20094;-78
2021/08/28 11:52:03;;;;;;;3.38;2.00;;;22.10;62.00;;;;;;5031230;28;20029;-79
2021/08/28 11:54:30;;;;;;;2.42;1.65;;;22.10;61.70;;;;;;5030576;28;20025;-80
2021/08/28 11:56:56;;;;;;;2.60;1.60;;;22.10;61.80;;;;;;5035103;28;20033;-80
2021/08/28 11:59:36;;;;;;;2.47;1.85;;;22.00;62.00;;;;;;5029709;28;20021;-80
2021/08/28 12:02:02;;;;;;;3.35;2.10;;;22.00;62.10;;;;;;5033830;28;20032;-79
2021/08/28 12:04:31;;;;;;;3.60;2.20;;;22.10;62.00;;;;;;5032049;28;20029;-80
2021/08/28 12:06:57;;;;;;;3.45;1.88;;;21.90;61.40;;;;;;5029081;28;20029;-80
2021/08/28 12:09:24;;;;;;;3.35;2.08;;;21.80;61.70;;;;;;5029136;28;20022;-78
2021/08/28 12:11:51;;;;;;;4.18;1.98;;;21.70;61.50;;;;;;5030521;28;20036;-79
2021/08/28 12:14:19;;;;;;;2.30;1.90;;;21.60;61.70;;;;;;5025390;28;20116;-77
2021/08/28 12:16:45;;;;;;;2.13;1.63;;;21.70;61.60;;;;;;5029237;28;20028;-78
2021/08/28 12:19:11;;;;;;;2.47;1.80;;;21.80;61.50;;;;;;5030733;28;20026;-75
2021/08/28 12:21:43;;;;;;;2.05;1.50;;;21.70;61.50;;;;;;5032548;28;20156;-77
2021/08/28 12:24:14;;;;;;;3.83;2.13;;;21.50;61.70;;;;;;5032236;28;20064;-78
2021/08/28 12:26:41;;;;;;;2.63;1.70;;;21.30;62.10;;;;;;5027555;28;20026;-77
2021/08/28 12:29:07;;;;;;;2.42;1.60;;;21.10;62.60;;;;;;5031693;28;20044;-77
2021/08/28 12:31:33;;;;;;;3.22;1.95;;;21.10;63.10;;;;;;5026579;28;20627;-76
2021/08/28 12:34:21;;;;;;;2.95;1.73;;;20.90;62.90;;;;;;5030172;28;20041;-77
2021/08/28 12:36:47;;;;;;;4.53;1.90;;;21.00;63.30;;;;;;5029010;28;20037;-77
2021/08/28 12:39:14;;;;;;;2.05;1.40;;;21.10;63.10;;;;;;5029038;28;20017;-77
2021/08/28 12:41:40;;;;;;;3.83;1.58;;;21.30;63.10;;;;;;5028752;28;20112;-78
2021/08/28 12:44:06;;;;;;;3.58;1.73;;;21.50;62.90;;;;;;5035206;28;20611;-78
2021/08/28 12:46:34;;;;;;;2.85;1.60;;;21.60;62.50;;;;;;5030074;28;20032;-78
2021/08/28 12:49:20;;;;;;;3.00;1.88;;;21.60;62.40;;;;;;5030053;28;20029;-78